createdAt,value
2023-02-04T00:01:20.392Z,96068.00
2023-02-04T00:03:46.881Z,96070.78
2023-02-04T00:06:13.356Z,96061.03
2023-02-04T00:08:39.976Z,96059.97
2023-02-04T00:11:06.457Z,96071.38
2023-02-04T00:13:32.924Z,96064.97
2023-02-04T00:15:59.526Z,96058.22
2023-02-04T00:18:26.231Z,96061.59
2023-02-04T00:20:52.801Z,96062.63
2023-02-04T00:23:19.238Z,96049.59
2023-02-04T00:25:45.714Z,96066.47
2023-02-04T00:28:12.212Z,96061.94
2023-02-04T00:30:38.689Z,96034.91
2023-02-04T00:33:05.120Z,96045.75
2023-02-04T00:35:31.706Z,96048.91
2023-02-04T00:37:58.206Z,96049.50
2023-02-04T00:40:24.661Z,96053.09
2023-02-04T00:42:51.202Z,96040.41
2023-02-04T00:45:17.650Z,96042.97
2023-02-04T00:47:44.112Z,96052.63
2023-02-04T00:50:10.593Z,96050.06
2023-02-04T00:52:37.061Z,96056.22
2023-02-04T00:55:03.633Z,96049.25
2023-02-04T00:57:30.164Z,96056.81
2023-02-04T00:59:56.594Z,96045.03
2023-02-04T01:02:23.048Z,96038.56
2023-02-04T01:04:49.527Z,96044.22
2023-02-04T01:07:16.046Z,96044.59
2023-02-04T01:09:42.553Z,96048.88
2023-02-04T01:12:22.416Z,96045.50
2023-02-04T01:14:49.146Z,96035.72
2023-02-04T01:17:15.606Z,96026.75
2023-02-04T01:19:42.197Z,96025.13
2023-02-04T01:22:08.657Z,96030.13
2023-02-04T01:24:35.189Z,96025.72
2023-02-04T01:27:01.648Z,96018.84
2023-02-04T01:29:28.077Z,96015.22
2023-02-04T01:31:54.650Z,96016.28
2023-02-04T01:34:21.171Z,96013.84
2023-02-04T01:36:47.633Z,96006.16
2023-02-04T01:39:14.129Z,96007.88
2023-02-04T01:41:40.592Z,96001.72
2023-02-04T01:44:07.044Z,96005.31
2023-02-04T01:46:35.802Z,96009.44
2023-02-04T01:49:04.167Z,95996.75
2023-02-04T01:54:59.280Z,95982.22
2023-02-04T01:57:25.831Z,95972.78
2023-02-04T01:59:53.025Z,95983.00
2023-02-04T02:02:38.712Z,95976.63
2023-02-04T02:05:05.551Z,95969.75
2023-02-04T02:07:31.995Z,95960.19
2023-02-04T02:09:58.497Z,95966.84
2023-02-04T02:12:24.972Z,95965.31
2023-02-04T02:14:51.413Z,95956.94
2023-02-04T02:17:17.889Z,95946.72
2023-02-04T02:19:44.381Z,95946.13
2023-02-04T02:22:16.976Z,95939.16
2023-02-04T02:24:43.492Z,95940.50
2023-02-04T02:27:10.448Z,95944.16
2023-02-04T02:29:37.543Z,95956.84
2023-02-04T02:32:04.049Z,95947.91
2023-02-04T02:34:30.759Z,95942.69
2023-02-04T02:36:57.837Z,95946.25
2023-02-04T02:39:24.367Z,95951.03
2023-02-04T02:41:50.847Z,95951.69
2023-02-04T02:44:17.308Z,95973.38
2023-02-04T02:46:43.867Z,95970.94
2023-02-04T02:49:15.029Z,95990.28
2023-02-04T02:51:41.792Z,96008.81
2023-02-04T02:54:12.556Z,96050.91
2023-02-04T02:56:39.010Z,96082.31
2023-02-04T02:59:15.553Z,96083.97
2023-02-04T03:01:42.150Z,96067.19
2023-02-04T03:04:08.624Z,96083.22
2023-02-04T03:10:03.683Z,96073.84
2023-02-04T03:12:30.231Z,96076.72
2023-02-04T03:14:56.675Z,96071.13
2023-02-04T03:17:23.176Z,96084.25
2023-02-04T03:19:49.640Z,96080.88
2023-02-04T03:22:16.129Z,96089.47
2023-02-04T03:24:42.586Z,96082.41
2023-02-04T03:27:09.151Z,96079.63
2023-02-04T03:29:40.776Z,96086.28
2023-02-04T03:32:07.221Z,96084.84
2023-02-04T03:34:33.703Z,96109.47
2023-02-04T03:37:00.190Z,96106.81
2023-02-04T03:39:26.641Z,96113.47
2023-02-04T03:41:53.114Z,96107.28
2023-02-04T03:44:19.711Z,96120.06
2023-02-04T03:46:46.182Z,96124.16
2023-02-04T03:49:12.799Z,96131.59
2023-02-04T03:51:39.271Z,96137.66
2023-02-04T03:54:05.699Z,96146.63
2023-02-04T03:56:32.163Z,96149.66
2023-02-04T03:58:58.618Z,96169.06
2023-02-04T04:01:25.176Z,96178.00
2023-02-04T04:03:51.678Z,96174.88
2023-02-04T04:06:18.178Z,96185.63
2023-02-04T04:08:44.705Z,96183.72
2023-02-04T04:11:11.757Z,96199.88
2023-02-04T04:13:38.220Z,96222.22
2023-02-04T04:16:05.157Z,96244.66
2023-02-04T04:18:32.922Z,96290.75
2023-02-04T04:20:59.599Z,96289.31
2023-02-04T04:23:26.117Z,96296.69
2023-02-04T04:25:52.651Z,96293.31
2023-02-04T04:28:19.221Z,96314.22
2023-02-04T04:30:45.814Z,96318.91
2023-02-04T04:33:12.417Z,96327.25
2023-02-04T04:35:39.020Z,96349.59
2023-02-04T04:38:05.531Z,96341.59
2023-02-04T04:40:32.321Z,96351.94
2023-02-04T04:42:58.963Z,96362.53
2023-02-04T04:45:25.426Z,96342.47
2023-02-04T04:47:51.892Z,96389.81
2023-02-04T04:50:18.408Z,96364.25
2023-02-04T04:52:44.867Z,96392.03
2023-02-04T04:55:11.342Z,96404.69
2023-02-04T04:57:37.888Z,96406.53
2023-02-04T05:00:05.122Z,96398.44
2023-02-04T05:02:31.817Z,96429.72
2023-02-04T05:04:58.360Z,96445.38
2023-02-04T05:07:24.815Z,96445.38
2023-02-04T05:09:51.297Z,96468.47
2023-02-04T05:12:17.740Z,96495.22
2023-02-04T05:14:44.238Z,96506.34
2023-02-04T05:17:10.714Z,96505.53
2023-02-04T05:19:37.225Z,96444.59
2023-02-04T05:22:03.697Z,96547.22
2023-02-04T05:24:30.168Z,96557.81
2023-02-04T05:26:56.656Z,96521.94
2023-02-04T05:29:23.140Z,96561.34
2023-02-04T05:31:49.682Z,96604.63
2023-02-04T05:34:16.185Z,96527.66
2023-02-04T05:36:42.632Z,96586.81
2023-02-04T05:39:09.161Z,96589.63
2023-02-04T05:41:35.614Z,96609.91
2023-02-04T05:44:02.365Z,96598.09
2023-02-04T05:46:28.844Z,96618.19
2023-02-04T05:48:55.355Z,96633.75
2023-02-04T05:51:21.844Z,96648.75
2023-02-04T05:53:48.333Z,96662.22
2023-02-04T05:56:14.821Z,96687.19
2023-02-04T05:58:41.260Z,96665.19
2023-02-04T06:01:07.793Z,96678.66
2023-02-04T06:03:57.072Z,96733.78
2023-02-04T06:06:23.642Z,96695.19
2023-02-04T06:08:50.137Z,96701.16
2023-02-04T06:11:16.571Z,96723.59
2023-02-04T06:13:43.076Z,96741.41
2023-02-04T06:16:09.633Z,96741.00
2023-02-04T06:18:36.205Z,96747.88
2023-02-04T06:21:04.781Z,96715.38
2023-02-04T06:23:31.901Z,96748.31
2023-02-04T06:25:58.338Z,96773.03
2023-02-04T06:28:55.098Z,96770.06
2023-02-04T06:31:21.638Z,96769.91
2023-02-04T06:33:48.206Z,96800.75
2023-02-04T06:36:14.924Z,96788.75
2023-02-04T06:38:41.524Z,96808.81
2023-02-04T06:41:16.299Z,96799.63
2023-02-04T06:43:42.797Z,96818.97
2023-02-04T06:46:09.325Z,96820.31
2023-02-04T06:48:35.865Z,96824.25
2023-02-04T06:51:02.318Z,96835.22
2023-02-04T06:53:28.759Z,96839.50
2023-02-04T06:55:55.291Z,96846.03
2023-02-04T06:58:21.856Z,96850.88
2023-02-04T07:00:48.331Z,96848.78
2023-02-04T07:03:14.836Z,96855.66
2023-02-04T07:05:41.424Z,96885.97
2023-02-04T07:08:07.915Z,96885.44
2023-02-04T07:10:34.655Z,96903.97
2023-02-04T07:13:01.265Z,96887.81
2023-02-04T07:15:27.809Z,96922.88
2023-02-04T07:17:54.422Z,96923.00
2023-02-04T07:20:20.899Z,96944.44
2023-02-04T07:22:47.437Z,96920.06
2023-02-04T07:25:16.117Z,96945.78
2023-02-04T07:27:42.667Z,96953.13
2023-02-04T07:30:09.904Z,96978.31
2023-02-04T07:32:36.503Z,96983.50
2023-02-04T07:35:03.001Z,96990.94
2023-02-04T07:37:31.120Z,96976.75
2023-02-04T07:39:57.711Z,96984.75
2023-02-04T07:42:25.063Z,96993.38
2023-02-04T07:44:51.542Z,97011.38
2023-02-04T07:47:19.062Z,97017.91
2023-02-04T07:49:45.513Z,97031.56
2023-02-04T07:52:12.480Z,97054.50
2023-02-04T07:54:38.974Z,97022.53
2023-02-04T07:57:05.424Z,97049.06
2023-02-04T07:59:31.880Z,97046.31
2023-02-04T08:01:58.465Z,97071.41
2023-02-04T08:04:24.986Z,97082.59
2023-02-04T08:10:21.505Z,97102.28
2023-02-04T08:12:47.966Z,97113.41
2023-02-04T08:15:14.425Z,97127.84
2023-02-04T08:17:40.889Z,97122.00
2023-02-04T08:20:09.317Z,97137.81
2023-02-04T08:22:35.844Z,97137.63
2023-02-04T08:25:02.945Z,97139.09
2023-02-04T08:27:29.452Z,97146.69
2023-02-04T08:29:55.889Z,97165.03
2023-02-04T08:32:22.424Z,97163.03
2023-02-04T08:34:49.122Z,97203.00
2023-02-04T08:37:15.765Z,97182.09
2023-02-04T08:39:46.375Z,97170.59
2023-02-04T08:42:13.351Z,97191.28
2023-02-04T08:44:39.871Z,97207.59
2023-02-04T08:47:06.355Z,97222.06
2023-02-04T08:49:32.876Z,97212.81
2023-02-04T08:55:20.731Z,97239.59
2023-02-04T08:57:47.164Z,97242.94
2023-02-04T09:00:13.892Z,97257.97
2023-02-04T09:06:08.758Z,97270.94
2023-02-04T09:08:35.258Z,97266.50
2023-02-04T09:11:01.978Z,97285.53
2023-02-04T09:13:28.642Z,97230.19
2023-02-04T09:15:55.256Z,97303.53
2023-02-04T09:18:22.672Z,97318.09
2023-02-04T09:20:49.363Z,97333.09
2023-02-04T09:23:15.952Z,97326.56
2023-02-04T09:25:43.297Z,97330.00
2023-02-04T09:28:13.086Z,97326.38
2023-02-04T09:30:39.985Z,97354.69
2023-02-04T09:33:09.355Z,97344.78
2023-02-04T09:35:36.067Z,97333.91
2023-02-04T09:38:02.711Z,97357.66
2023-02-04T09:40:30.280Z,97375.94
2023-02-04T09:42:56.938Z,97368.81
2023-02-04T09:45:28.248Z,97384.03
2023-02-04T09:47:55.025Z,97370.59
2023-02-04T09:50:22.222Z,97388.47
2023-02-04T09:52:49.556Z,97385.97
2023-02-04T09:55:16.459Z,97418.28
2023-02-04T09:57:43.105Z,97409.44
2023-02-04T10:00:19.937Z,97392.25
2023-02-04T10:02:46.396Z,97425.63
2023-02-04T10:08:40.881Z,97417.75
2023-02-04T10:11:09.374Z,97423.31
2023-02-04T10:13:41.891Z,97422.81
2023-02-04T10:16:16.048Z,97424.72
2023-02-04T10:18:42.557Z,97431.66
2023-02-04T10:21:12.124Z,97428.22
2023-02-04T10:23:38.593Z,97428.22
2023-02-04T10:26:05.615Z,97443.25
2023-02-04T10:28:35.526Z,97445.03
2023-02-04T10:31:02.143Z,97459.78
2023-02-04T10:33:28.737Z,97451.72
2023-02-04T10:35:58.292Z,97448.81
2023-02-04T10:38:24.874Z,97458.75
2023-02-04T10:41:03.975Z,97462.34
2023-02-04T10:43:30.482Z,97454.50
2023-02-04T10:46:01.374Z,97476.13
2023-02-04T10:48:30.155Z,97456.25
2023-02-04T10:50:56.900Z,97498.38
2023-02-04T10:53:42.230Z,97469.56
2023-02-04T10:56:16.567Z,97458.97
2023-02-04T10:58:43.229Z,97483.09
2023-02-04T11:01:13.282Z,97476.47
2023-02-04T11:03:40.519Z,97464.69
2023-02-04T11:06:18.272Z,97478.28
2023-02-04T11:08:44.938Z,97490.16
2023-02-04T11:11:15.867Z,97477.78
2023-02-04T11:13:51.640Z,97508.91
2023-02-04T11:16:18.115Z,97481.59
2023-02-04T11:18:46.445Z,97471.72
2023-02-04T11:21:22.816Z,97480.97
2023-02-04T11:23:49.309Z,97490.34
2023-02-04T11:26:19.269Z,97495.53
2023-02-04T11:28:50.113Z,97473.44
2023-02-04T11:31:19.838Z,97519.78
2023-02-04T11:33:46.371Z,97538.31
2023-02-04T11:36:14.547Z,97518.25
2023-02-04T11:38:44.741Z,97540.94
2023-02-04T11:41:19.276Z,97523.91
2023-02-04T11:43:45.720Z,97527.66
2023-02-04T11:46:13.287Z,97540.31
2023-02-04T11:48:39.793Z,97528.88
2023-02-04T11:51:15.964Z,97534.47
2023-02-04T11:53:42.576Z,97558.84
2023-02-04T11:56:16.948Z,97557.00
2023-02-04T11:58:43.432Z,97582.59
2023-02-04T12:01:21.387Z,97568.81
2023-02-04T12:03:51.866Z,97589.03
2023-02-04T12:06:21.888Z,97590.44
2023-02-04T12:08:48.618Z,97588.56
2023-02-04T12:11:27.900Z,97603.31
2023-02-04T12:13:54.841Z,97598.63
2023-02-04T12:16:21.324Z,97606.31
2023-02-04T12:18:47.939Z,97617.16
2023-02-04T12:21:18.907Z,97580.97
2023-02-04T12:23:45.484Z,97607.97
2023-02-04T12:26:12.560Z,97598.72
2023-02-04T12:28:39.115Z,97615.38
2023-02-04T12:31:05.725Z,97600.03
2023-02-04T12:33:32.273Z,97603.44
2023-02-04T12:35:59.106Z,97603.91
2023-02-04T12:38:25.625Z,97611.31
2023-02-04T12:40:52.111Z,97623.56
2023-02-04T12:43:18.667Z,97624.09
2023-02-04T12:45:46.485Z,97616.34
2023-02-04T12:48:14.208Z,97620.22
2023-02-04T12:50:40.831Z,97626.47
2023-02-04T12:53:07.360Z,97626.84
2023-02-04T12:55:34.307Z,97637.56
2023-02-04T12:58:01.189Z,97621.78
2023-02-04T13:00:27.862Z,97641.31
2023-02-04T13:02:59.283Z,97632.94
2023-02-04T13:05:25.812Z,97643.38
2023-02-04T13:07:52.315Z,97653.50
2023-02-04T13:10:20.155Z,97666.78
2023-02-04T13:12:46.851Z,97655.06
2023-02-04T13:15:13.638Z,97670.34
2023-02-04T13:17:40.214Z,97684.75
2023-02-04T13:20:06.841Z,97662.16
2023-02-04T13:22:33.394Z,97669.09
2023-02-04T13:24:59.840Z,97672.56
2023-02-04T13:27:42.853Z,97666.66
2023-02-04T13:30:09.785Z,97691.13
2023-02-04T13:32:36.234Z,97687.69
2023-02-04T13:35:02.685Z,97707.09
2023-02-04T13:37:29.182Z,97698.38
2023-02-04T13:39:55.707Z,97701.81
2023-02-04T13:42:22.167Z,97709.91
2023-02-04T13:44:48.631Z,97707.75
2023-02-04T13:47:15.164Z,97707.09
2023-02-04T13:49:41.684Z,97722.53
2023-02-04T13:52:08.155Z,97720.97
2023-02-04T13:54:36.700Z,97734.63
2023-02-04T13:57:09.214Z,97727.47
2023-02-04T13:59:35.750Z,97737.31
2023-02-04T14:02:02.295Z,97732.88
2023-02-04T14:04:28.847Z,97722.97
2023-02-04T14:06:56.586Z,97729.50
2023-02-04T14:09:23.349Z,97738.91
2023-02-04T14:11:49.876Z,97733.25
2023-02-04T14:14:17.095Z,97727.94
2023-02-04T14:16:43.615Z,97742.63
2023-02-04T14:19:10.222Z,97734.19
2023-02-04T14:21:36.690Z,97742.44
2023-02-04T14:24:03.241Z,97744.16
2023-02-04T14:26:29.727Z,97739.84
2023-02-04T14:28:56.166Z,97746.00
2023-02-04T14:31:22.734Z,97755.81
2023-02-04T14:33:50.489Z,97736.69
2023-02-04T14:36:17.021Z,97742.00
2023-02-04T14:38:43.841Z,97744.75
2023-02-04T14:41:11.500Z,97743.19
2023-02-04T14:43:37.974Z,97742.22
2023-02-04T14:46:05.536Z,97736.91
2023-02-04T14:48:32.211Z,97751.31
2023-02-04T14:50:58.673Z,97753.00
2023-02-04T14:53:25.128Z,97762.13
2023-02-04T14:55:51.552Z,97770.69
2023-02-04T14:58:18.488Z,97779.31
2023-02-04T15:00:44.995Z,97792.31
2023-02-04T15:03:11.473Z,97799.16
2023-02-04T15:05:37.993Z,97794.88
2023-02-04T15:08:04.815Z,97821.81
2023-02-04T15:10:31.723Z,97814.44
2023-02-04T15:12:59.215Z,97818.41
2023-02-04T15:15:25.650Z,97805.28
2023-02-04T15:17:52.221Z,97809.19
2023-02-04T15:20:18.755Z,97816.03
2023-02-04T15:22:45.302Z,97806.88
2023-02-04T15:25:12.719Z,97804.50
2023-02-04T15:27:39.187Z,97804.50
2023-02-04T15:30:05.758Z,97821.34
2023-02-04T15:32:32.336Z,97818.63
2023-02-04T15:34:58.795Z,97820.34
2023-02-04T15:37:25.307Z,97830.44
2023-02-04T15:39:51.816Z,97832.81
2023-02-04T15:42:18.263Z,97831.88
2023-02-04T15:44:44.731Z,97821.72
2023-02-04T15:47:11.168Z,97835.00
2023-02-04T15:49:37.817Z,97847.53
2023-02-04T15:52:05.808Z,97832.88
2023-02-04T15:54:35.370Z,97844.59
2023-02-04T15:57:03.338Z,97843.81
2023-02-04T15:59:29.988Z,97842.41
2023-02-04T16:01:56.434Z,97845.13
2023-02-04T16:04:23.031Z,97841.91
2023-02-04T16:06:58.194Z,97833.34
2023-02-04T16:09:25.584Z,97840.97
2023-02-04T16:11:52.074Z,97851.84
2023-02-04T16:14:18.707Z,97854.56
2023-02-04T16:16:45.196Z,97863.13
2023-02-04T16:19:11.714Z,97856.94
2023-02-04T16:21:38.173Z,97859.34
2023-02-04T16:24:04.833Z,97867.25
2023-02-04T16:26:51.747Z,97864.06
2023-02-04T16:29:18.259Z,97875.97
2023-02-04T16:31:44.775Z,97867.16
2023-02-04T16:34:11.372Z,97869.75
2023-02-04T16:36:37.832Z,97870.56
2023-02-04T16:39:04.337Z,97874.94
2023-02-04T16:41:31.035Z,97878.25
2023-02-04T16:43:58.260Z,97877.63
2023-02-04T16:46:24.771Z,97871.94
2023-02-04T16:48:51.226Z,97873.06
2023-02-04T16:51:20.559Z,97871.47
2023-02-04T16:53:47.272Z,97873.00
2023-02-04T16:56:13.681Z,97890.00
2023-02-04T16:58:40.229Z,97880.38
2023-02-04T17:01:06.925Z,97878.03
2023-02-04T17:03:34.423Z,97887.34
2023-02-04T17:06:01.094Z,97880.56
2023-02-04T17:08:28.312Z,97889.84
2023-02-04T17:11:13.527Z,97891.25
2023-02-04T17:13:40.042Z,97888.78
2023-02-04T17:16:06.568Z,97890.44
2023-02-04T17:18:33.130Z,97892.97
2023-02-04T17:20:59.638Z,97898.84
2023-02-04T17:23:26.936Z,97899.00
2023-02-04T17:25:53.538Z,97900.72
2023-02-04T17:28:20.135Z,97904.81
2023-02-04T17:30:46.757Z,97915.25
2023-02-04T17:33:13.331Z,97913.31
2023-02-04T17:35:39.993Z,97911.53
2023-02-04T17:38:06.571Z,97917.56
2023-02-04T17:40:33.264Z,97912.44
2023-02-04T17:42:59.721Z,97922.16
2023-02-04T17:45:26.325Z,97925.63
2023-02-04T17:47:52.761Z,97925.84
2023-02-04T17:50:19.290Z,97924.19
2023-02-04T17:52:45.933Z,97922.19
2023-02-04T17:55:27.723Z,97918.22
2023-02-04T17:57:54.875Z,97919.22
2023-02-04T18:00:21.783Z,97923.59
2023-02-04T18:02:49.733Z,97925.44
2023-02-04T18:05:17.421Z,97922.38
2023-02-04T18:07:46.035Z,97920.88
2023-02-04T18:10:20.695Z,97917.78
2023-02-04T18:12:47.165Z,97921.91
2023-02-04T18:15:19.247Z,97922.69
2023-02-04T18:17:45.752Z,97912.41
2023-02-04T18:20:17.016Z,97920.16
2023-02-04T18:22:43.440Z,97914.31
2023-02-04T18:25:13.407Z,97925.47
2023-02-04T18:27:39.895Z,97926.63
2023-02-04T18:30:07.685Z,97925.69
2023-02-04T18:32:38.083Z,97925.81
2023-02-04T18:35:19.416Z,97924.97
2023-02-04T18:37:46.548Z,97930.16
2023-02-04T18:40:25.657Z,97936.94
2023-02-04T18:42:55.550Z,97925.63
2023-02-04T18:45:23.893Z,97928.84
2023-02-04T18:47:51.778Z,97933.91
2023-02-04T18:50:23.102Z,97927.72
2023-02-04T18:52:49.875Z,97937.84
2023-02-04T18:55:19.473Z,97934.56
2023-02-04T18:57:45.967Z,97926.16
2023-02-04T19:00:13.964Z,97931.22
2023-02-04T19:03:15.783Z,97937.22
2023-02-04T19:05:43.464Z,97939.56
2023-02-04T19:08:29.832Z,97933.13
2023-02-04T19:10:57.308Z,97933.28
2023-02-04T19:13:40.948Z,97937.72
2023-02-04T19:16:14.914Z,97939.50
2023-02-04T19:18:44.757Z,97947.13
2023-02-04T19:21:27.613Z,97946.03
2023-02-04T19:24:14.170Z,97936.66
2023-02-04T19:26:42.153Z,97938.56
2023-02-04T19:29:30.223Z,97949.53
2023-02-04T19:32:00.542Z,97943.47
2023-02-04T19:34:28.302Z,97951.09
2023-02-04T19:36:54.831Z,97953.75
2023-02-04T19:39:29.789Z,97939.44
2023-02-04T19:41:56.616Z,97945.25
2023-02-04T19:44:35.523Z,97942.59
2023-02-04T19:47:13.359Z,97953.63
2023-02-04T19:49:41.735Z,97958.50
2023-02-04T19:52:09.094Z,97959.31
2023-02-04T19:54:36.784Z,97954.34
2023-02-04T19:57:04.841Z,97962.97
2023-02-04T19:59:35.602Z,97963.97
2023-02-04T20:02:08.510Z,97961.94
2023-02-04T20:04:35.954Z,97973.97
2023-02-04T20:07:02.543Z,97986.50
2023-02-04T20:09:30.993Z,97977.34
2023-02-04T20:12:17.713Z,97971.59
2023-02-04T20:14:54.449Z,97969.88
2023-02-04T20:17:24.006Z,97974.16
2023-02-04T20:19:52.485Z,97990.38
2023-02-04T20:22:19.039Z,97983.56
2023-02-04T20:24:46.195Z,97962.38
2023-02-04T20:27:17.232Z,97960.88
2023-02-04T20:29:43.698Z,97969.47
2023-02-04T20:32:16.178Z,97969.50
2023-02-04T20:34:42.603Z,97965.63
2023-02-04T20:37:09.420Z,97985.13
2023-02-04T20:39:37.122Z,97977.50
2023-02-04T20:42:16.442Z,97964.84
2023-02-04T20:44:43.018Z,97984.56
2023-02-04T20:47:22.739Z,97979.00
2023-02-04T20:49:54.161Z,97979.03
2023-02-04T20:52:39.066Z,97986.94
2023-02-04T20:55:20.680Z,97978.50
2023-02-04T20:57:48.421Z,97980.19
2023-02-04T21:00:15.733Z,97977.94
2023-02-04T21:02:42.363Z,97977.22
2023-02-04T21:05:22.104Z,97995.84
2023-02-04T21:07:48.617Z,97969.41
2023-02-04T21:10:15.223Z,97996.94
2023-02-04T21:12:45.704Z,97997.94
2023-02-04T21:15:12.242Z,98003.91
2023-02-04T21:17:38.791Z,97998.09
2023-02-04T21:20:06.527Z,98001.44
2023-02-04T21:22:33.179Z,97991.31
2023-02-04T21:24:59.607Z,97992.22
2023-02-04T21:27:26.053Z,97998.88
2023-02-04T21:29:52.515Z,97997.34
2023-02-04T21:32:19.255Z,97988.81
2023-02-04T21:34:45.785Z,97996.13
2023-02-04T21:37:12.363Z,97982.59
2023-02-04T21:39:38.873Z,97991.66
2023-02-04T21:42:11.671Z,97999.94
2023-02-04T21:44:41.167Z,97990.06
2023-02-04T21:47:07.732Z,97991.34
2023-02-04T21:49:34.227Z,97990.53
2023-02-04T21:52:00.791Z,97991.59
2023-02-04T21:54:27.376Z,98007.66
2023-02-04T21:56:53.809Z,98011.53
2023-02-04T21:59:20.575Z,98013.25
2023-02-04T22:02:07.432Z,98015.13
2023-02-04T22:04:33.870Z,97997.75
2023-02-04T22:07:00.383Z,98011.28
2023-02-04T22:09:26.817Z,98014.56
2023-02-04T22:11:53.255Z,98015.53
2023-02-04T22:14:20.146Z,98022.19
2023-02-04T22:16:47.163Z,98026.81
2023-02-04T22:19:13.810Z,98030.25
2023-02-04T22:21:40.281Z,98023.56
2023-02-04T22:24:06.775Z,98048.22
2023-02-04T22:26:33.262Z,98038.16
2023-02-04T22:28:59.734Z,98045.81
2023-02-04T22:31:26.235Z,98034.09
2023-02-04T22:33:55.143Z,98040.66
2023-02-04T22:36:21.874Z,98042.50
2023-02-04T22:38:48.409Z,98035.75
2023-02-04T22:41:14.935Z,98034.16
2023-02-04T22:43:41.545Z,98051.81
2023-02-04T22:46:08.373Z,98048.53
2023-02-04T22:48:35.137Z,98059.25
2023-02-04T22:51:03.677Z,98055.50
2023-02-04T22:53:30.776Z,98052.31
2023-02-04T22:55:57.288Z,98050.66
2023-02-04T22:58:23.879Z,98051.44
2023-02-04T23:00:50.349Z,98053.69
2023-02-04T23:03:16.895Z,98048.84
2023-02-04T23:05:44.017Z,98051.66
2023-02-04T23:08:10.640Z,98049.00
2023-02-04T23:10:38.936Z,98045.53
2023-02-04T23:13:05.573Z,98039.81
2023-02-04T23:15:32.532Z,98052.53
2023-02-04T23:18:00.119Z,98053.25
2023-02-04T23:20:26.759Z,98058.66
2023-02-04T23:22:54.464Z,98055.16
2023-02-04T23:25:21.290Z,98059.34
2023-02-04T23:27:48.192Z,98068.00
2023-02-04T23:30:14.710Z,98063.97
2023-02-04T23:32:41.326Z,98079.16
2023-02-04T23:35:07.893Z,98066.41
2023-02-04T23:37:35.040Z,98064.03
2023-02-04T23:40:01.971Z,98060.78
2023-02-04T23:42:29.818Z,98066.31
2023-02-04T23:44:56.263Z,98068.97
2023-02-04T23:47:22.723Z,98079.13
2023-02-04T23:49:49.129Z,98059.53
2023-02-04T23:52:15.618Z,98061.47
2023-02-04T23:54:42.087Z,98064.00
2023-02-04T23:57:08.943Z,98058.84
2023-02-04T23:59:36.258Z,98065.72
